createdAt,value
2022-10-18T00:02:11.169Z,100.00
2022-10-18T00:04:37.970Z,100.00
2022-10-18T00:07:04.659Z,100.00
2022-10-18T00:09:31.431Z,100.00
2022-10-18T00:11:58.004Z,100.00
2022-10-18T00:14:24.551Z,100.00
2022-10-18T00:16:51.046Z,100.00
2022-10-18T00:19:18.946Z,100.00
2022-10-18T00:24:16.855Z,100.00
2022-10-18T00:26:43.469Z,100.00
2022-10-18T00:29:13.812Z,100.00
2022-10-18T00:31:40.321Z,100.00
2022-10-18T00:34:10.006Z,100.00
2022-10-18T00:36:38.012Z,100.00
2022-10-18T00:39:06.158Z,100.00
2022-10-18T00:41:34.248Z,100.00
2022-10-18T00:44:04.299Z,100.00
2022-10-18T00:46:32.496Z,100.00
2022-10-18T00:49:01.799Z,100.00
2022-10-18T00:51:32.481Z,100.00
2022-10-18T00:54:00.480Z,100.00
2022-10-18T00:56:27.022Z,100.00
2022-10-18T00:58:53.931Z,100.00
2022-10-18T01:01:24.416Z,100.00
2022-10-18T01:03:54.450Z,100.00
2022-10-18T01:06:20.972Z,100.00
2022-10-18T01:09:00.636Z,100.00
2022-10-18T01:11:41.815Z,100.00
2022-10-18T01:14:18.685Z,100.00
2022-10-18T01:16:53.941Z,100.00
2022-10-18T01:20:02.410Z,100.00
2022-10-18T01:22:34.572Z,100.00
2022-10-18T01:25:16.281Z,100.00
2022-10-18T01:27:52.976Z,100.00
2022-10-18T01:30:47.965Z,100.00
2022-10-18T01:33:24.356Z,100.00
2022-10-18T01:35:57.005Z,100.00
2022-10-18T01:38:24.646Z,100.00
2022-10-18T01:40:52.730Z,100.00
2022-10-18T01:43:21.362Z,100.00
2022-10-18T01:45:49.689Z,100.00
2022-10-18T01:48:17.243Z,100.00
2022-10-18T01:50:43.851Z,100.00
2022-10-18T01:53:25.561Z,100.00
2022-10-18T01:55:56.030Z,100.00
2022-10-18T01:58:30.755Z,100.00
2022-10-18T02:01:07.473Z,100.00
2022-10-18T02:03:37.637Z,100.00
2022-10-18T02:06:09.480Z,100.00
2022-10-18T02:08:42.534Z,100.00
2022-10-18T02:11:13.241Z,100.00
2022-10-18T02:13:43.959Z,100.00
2022-10-18T02:16:14.406Z,100.00
2022-10-18T02:18:45.392Z,100.00
2022-10-18T02:21:15.706Z,100.00
2022-10-18T02:23:44.895Z,100.00
2022-10-18T02:26:11.762Z,100.00
2022-10-18T02:28:38.782Z,100.00
2022-10-18T02:31:13.355Z,100.00
2022-10-18T02:33:48.982Z,100.00
2022-10-18T02:36:23.834Z,100.00
2022-10-18T02:38:55.926Z,100.00
2022-10-18T02:41:24.201Z,100.00
2022-10-18T02:43:50.731Z,100.00
2022-10-18T02:46:17.518Z,100.00
2022-10-18T02:48:45.851Z,100.00
2022-10-18T02:51:12.405Z,100.00
2022-10-18T02:53:38.912Z,100.00
2022-10-18T02:56:05.817Z,100.00
2022-10-18T02:58:32.355Z,100.00
2022-10-18T03:00:58.966Z,100.00
2022-10-18T03:03:25.536Z,100.00
2022-10-18T03:05:53.431Z,100.00
2022-10-18T03:08:19.980Z,100.00
2022-10-18T03:10:47.011Z,100.00
2022-10-18T03:13:13.541Z,100.00
2022-10-18T03:15:40.210Z,100.00
2022-10-18T03:18:06.749Z,100.00
2022-10-18T03:20:33.827Z,100.00
2022-10-18T03:23:01.814Z,100.00
2022-10-18T03:25:28.386Z,100.00
2022-10-18T03:27:54.929Z,100.00
2022-10-18T03:30:21.517Z,100.00
2022-10-18T03:32:48.070Z,100.00
2022-10-18T03:35:14.643Z,100.00
2022-10-18T03:37:41.175Z,100.00
2022-10-18T03:40:10.007Z,100.00
2022-10-18T03:42:36.699Z,100.00
2022-10-18T03:45:04.080Z,100.00
2022-10-18T03:47:30.806Z,100.00
2022-10-18T03:49:57.547Z,100.00
2022-10-18T03:52:24.378Z,100.00
2022-10-18T03:54:50.955Z,100.00
2022-10-18T03:57:18.793Z,100.00
2022-10-18T03:59:45.348Z,100.00
2022-10-18T04:02:11.836Z,100.00
2022-10-18T04:04:38.369Z,100.00
2022-10-18T04:07:05.291Z,100.00
2022-10-18T04:09:31.894Z,100.00
2022-10-18T04:11:58.423Z,100.00
2022-10-18T04:14:27.278Z,100.00
2022-10-18T04:16:53.771Z,100.00
2022-10-18T04:19:20.350Z,100.00
2022-10-18T04:21:46.888Z,100.00
2022-10-18T04:24:13.518Z,100.00
2022-10-18T04:26:39.994Z,100.00
2022-10-18T04:29:06.750Z,100.00
2022-10-18T04:31:34.683Z,100.00
2022-10-18T04:34:01.286Z,100.00
2022-10-18T04:36:27.802Z,100.00
2022-10-18T04:38:54.370Z,100.00
2022-10-18T04:41:20.887Z,100.00
2022-10-18T04:43:47.520Z,100.00
2022-10-18T04:46:14.019Z,100.00
2022-10-18T04:48:42.025Z,100.00
2022-10-18T04:51:08.553Z,100.00
2022-10-18T04:53:35.102Z,100.00
2022-10-18T04:56:01.661Z,100.00
2022-10-18T04:58:28.294Z,100.00
2022-10-18T05:00:54.930Z,100.00
2022-10-18T05:03:21.487Z,100.00
2022-10-18T05:06:01.448Z,100.00
2022-10-18T05:08:29.376Z,100.00
2022-10-18T05:10:56.018Z,100.00
2022-10-18T05:13:22.566Z,100.00
2022-10-18T05:15:49.085Z,100.00
2022-10-18T05:18:15.823Z,100.00
2022-10-18T05:20:42.349Z,100.00
2022-10-18T05:23:10.529Z,100.00
2022-10-18T05:25:38.253Z,100.00
2022-10-18T05:28:10.950Z,100.00
2022-10-18T05:30:42.860Z,100.00
2022-10-18T05:33:09.688Z,100.00
2022-10-18T05:35:36.680Z,100.00
2022-10-18T05:38:04.231Z,100.00
2022-10-18T05:40:32.290Z,100.00
2022-10-18T05:42:58.873Z,100.00
2022-10-18T05:45:25.559Z,100.00
2022-10-18T05:47:52.083Z,100.00
2022-10-18T05:50:18.667Z,100.00
2022-10-18T05:52:45.186Z,100.00
2022-10-18T05:55:11.742Z,100.00
2022-10-18T05:57:39.596Z,100.00
2022-10-18T06:00:07.200Z,100.00
2022-10-18T06:02:38.347Z,100.00
2022-10-18T06:05:05.275Z,100.00
2022-10-18T06:07:32.047Z,100.00
2022-10-18T06:09:58.793Z,100.00
2022-10-18T06:12:25.334Z,100.00
2022-10-18T06:14:53.295Z,100.00
2022-10-18T06:17:19.802Z,100.00
2022-10-18T06:19:46.351Z,100.00
2022-10-18T06:22:12.848Z,100.00
2022-10-18T06:24:39.427Z,100.00
2022-10-18T06:29:38.274Z,100.00
2022-10-18T06:32:07.561Z,100.00
2022-10-18T06:34:34.458Z,100.00
2022-10-18T06:37:01.110Z,100.00
2022-10-18T06:39:27.700Z,100.00
2022-10-18T06:41:54.220Z,100.00
2022-10-18T06:44:21.521Z,100.00
2022-10-18T06:46:49.103Z,100.00
2022-10-18T06:49:19.133Z,100.00
2022-10-18T06:51:46.240Z,100.00
2022-10-18T06:54:18.115Z,100.00
2022-10-18T06:56:45.589Z,100.00
2022-10-18T06:59:12.259Z,100.00
2022-10-18T07:01:38.948Z,100.00
2022-10-18T07:04:05.541Z,100.00
2022-10-18T07:06:33.454Z,100.00
2022-10-18T07:08:59.982Z,100.00
2022-10-18T07:11:27.266Z,100.00
2022-10-18T07:13:58.293Z,100.00
2022-10-18T07:16:24.849Z,100.00
2022-10-18T07:18:51.806Z,100.00
2022-10-18T07:21:20.055Z,100.00
2022-10-18T07:23:48.495Z,100.00
2022-10-18T07:26:17.731Z,100.00
2022-10-18T07:28:47.133Z,100.00
2022-10-18T07:31:13.818Z,100.00
2022-10-18T07:33:40.589Z,100.00
2022-10-18T07:36:09.193Z,100.00
2022-10-18T07:38:35.999Z,100.00
2022-10-18T07:41:05.478Z,100.00
2022-10-18T07:43:32.892Z,100.00
2022-10-18T07:46:01.488Z,100.00
2022-10-18T07:48:28.202Z,100.00
2022-10-18T07:50:57.525Z,100.00
2022-10-18T07:53:24.145Z,100.00
2022-10-18T07:55:50.810Z,100.00
2022-10-18T07:58:18.661Z,100.00
2022-10-18T08:00:45.212Z,100.00
2022-10-18T08:03:11.703Z,100.00
2022-10-18T08:05:38.299Z,100.00
2022-10-18T08:08:07.897Z,100.00
2022-10-18T08:10:35.611Z,100.00
2022-10-18T08:13:02.113Z,100.00
2022-10-18T08:15:29.988Z,100.00
2022-10-18T08:17:56.493Z,100.00
2022-10-18T08:20:31.344Z,100.00
2022-10-18T08:23:00.456Z,100.00
2022-10-18T08:25:27.685Z,100.00
2022-10-18T08:27:54.318Z,100.00
2022-10-18T08:30:20.841Z,100.00
2022-10-18T08:32:48.925Z,100.00
2022-10-18T08:35:15.461Z,100.00
2022-10-18T08:37:42.024Z,100.00
2022-10-18T08:40:12.693Z,100.00
2022-10-18T08:42:58.921Z,100.00
2022-10-18T08:45:42.084Z,100.00
2022-10-18T08:48:19.886Z,100.00
2022-10-18T08:50:46.849Z,100.00
2022-10-18T08:53:19.074Z,98.86
2022-10-18T08:55:49.703Z,98.71
2022-10-18T08:58:19.801Z,97.34
2022-10-18T09:00:54.478Z,96.99
2022-10-18T09:03:38.308Z,94.86
2022-10-18T09:06:19.844Z,93.95
2022-10-18T09:09:01.146Z,94.51
2022-10-18T09:11:44.379Z,93.97
2022-10-18T09:14:56.984Z,91.69
2022-10-18T09:17:30.693Z,92.40
2022-10-18T09:20:11.560Z,90.40
2022-10-18T09:22:51.017Z,90.12
2022-10-18T09:25:20.136Z,91.17
2022-10-18T09:27:52.948Z,91.94
2022-10-18T09:30:37.718Z,91.46
2022-10-18T09:33:17.121Z,91.70
2022-10-18T09:35:53.525Z,91.97
2022-10-18T09:38:26.359Z,92.66
2022-10-18T09:40:58.109Z,92.63
2022-10-18T09:43:33.504Z,92.63
2022-10-18T09:46:00.170Z,91.96
2022-10-18T09:48:29.196Z,89.55
2022-10-18T09:51:03.226Z,89.62
2022-10-18T09:53:36.944Z,89.77
2022-10-18T09:56:06.804Z,89.44
2022-10-18T09:58:42.993Z,89.94
2022-10-18T10:01:12.489Z,90.26
2022-10-18T10:03:39.365Z,90.18
2022-10-18T10:06:25.082Z,90.02
2022-10-18T10:08:57.230Z,90.15
2022-10-18T10:11:29.457Z,89.42
2022-10-18T10:13:57.951Z,89.88
2022-10-18T10:16:26.558Z,90.14
2022-10-18T10:18:54.108Z,89.89
2022-10-18T10:21:22.106Z,88.19
2022-10-18T10:23:53.636Z,87.76
2022-10-18T10:26:22.111Z,86.89
2022-10-18T10:28:49.251Z,87.99
2022-10-18T10:31:27.539Z,87.52
2022-10-18T10:34:00.770Z,87.93
2022-10-18T10:36:30.191Z,87.22
2022-10-18T10:39:04.973Z,87.82
2022-10-18T10:44:13.874Z,87.93
2022-10-18T10:46:40.509Z,88.43
2022-10-18T10:49:39.212Z,88.38
2022-10-18T10:52:25.851Z,87.40
2022-10-18T10:55:05.427Z,87.43
2022-10-18T10:57:38.594Z,87.59
2022-10-18T11:00:05.883Z,87.49
2022-10-18T11:02:34.626Z,88.05
2022-10-18T11:05:16.558Z,87.57
2022-10-18T11:07:46.256Z,88.71
2022-10-18T11:10:16.262Z,88.61
2022-10-18T11:12:44.924Z,89.21
2022-10-18T11:15:20.737Z,89.26
2022-10-18T11:17:56.355Z,89.50
2022-10-18T11:20:28.282Z,88.50
2022-10-18T11:23:02.732Z,88.95
2022-10-18T11:25:46.039Z,88.37
2022-10-18T11:28:19.499Z,88.93
2022-10-18T11:30:59.494Z,86.71
2022-10-18T11:34:03.397Z,87.61
2022-10-18T11:36:31.263Z,87.92
2022-10-18T11:39:08.934Z,87.56
2022-10-18T11:41:38.617Z,86.94
2022-10-18T11:44:18.827Z,87.53
2022-10-18T11:46:56.017Z,86.63
2022-10-18T11:49:45.219Z,85.00
2022-10-18T11:52:21.558Z,86.44
2022-10-18T11:55:04.933Z,86.00
2022-10-18T11:57:43.128Z,85.62
2022-10-18T12:00:22.380Z,84.96
2022-10-18T12:03:10.747Z,85.47
2022-10-18T12:05:39.345Z,85.53
2022-10-18T12:08:10.517Z,85.89
2022-10-18T12:10:59.909Z,85.67
2022-10-18T12:13:35.955Z,84.32
2022-10-18T12:16:04.979Z,83.12
2022-10-18T12:18:32.722Z,82.09
2022-10-18T12:21:00.822Z,81.75
2022-10-18T12:23:37.104Z,77.47
2022-10-18T12:26:07.602Z,79.57
2022-10-18T12:28:44.288Z,80.46
2022-10-18T12:31:20.561Z,80.05
2022-10-18T12:33:50.663Z,79.87
2022-10-18T12:36:35.711Z,79.75
2022-10-18T12:39:06.750Z,79.62
2022-10-18T12:41:35.932Z,79.98
2022-10-18T12:44:05.864Z,79.36
2022-10-18T12:46:47.080Z,79.88
2022-10-18T12:49:17.516Z,80.34
2022-10-18T12:51:52.624Z,80.58
2022-10-18T12:54:24.362Z,81.43
2022-10-18T12:56:52.564Z,82.09
2022-10-18T12:59:42.697Z,81.88
2022-10-18T13:02:20.719Z,81.57
2022-10-18T13:04:47.549Z,81.22
2022-10-18T13:07:21.678Z,80.39
2022-10-18T13:10:38.721Z,78.89
2022-10-18T13:13:40.542Z,78.18
2022-10-18T13:16:23.933Z,76.04
2022-10-18T13:18:54.936Z,76.63
2022-10-18T13:21:32.193Z,76.50
2022-10-18T13:24:18.157Z,77.03
2022-10-18T13:27:05.101Z,76.06
2022-10-18T13:29:57.143Z,73.79
2022-10-18T13:32:32.693Z,72.00
2022-10-18T13:34:59.833Z,71.29
2022-10-18T13:37:27.427Z,70.03
2022-10-18T13:40:15.456Z,68.51
2022-10-18T13:42:42.101Z,69.38
2022-10-18T13:45:44.374Z,68.30
2022-10-18T13:48:47.289Z,68.87
2022-10-18T13:51:42.774Z,68.19
2022-10-18T13:54:28.589Z,68.43
2022-10-18T13:57:16.723Z,67.85
2022-10-18T14:00:07.508Z,67.61
2022-10-18T14:02:59.925Z,66.38
2022-10-18T14:05:51.563Z,68.53
2022-10-18T14:08:24.393Z,69.96
2022-10-18T14:11:03.545Z,70.14
2022-10-18T14:13:36.690Z,70.00
2022-10-18T14:16:09.449Z,70.26
2022-10-18T14:18:41.050Z,70.31
2022-10-18T14:21:16.923Z,71.24
2022-10-18T14:23:47.968Z,71.84
2022-10-18T14:26:16.616Z,72.82
2022-10-18T14:29:00.272Z,73.16
2022-10-18T14:31:27.968Z,73.91
2022-10-18T14:33:58.404Z,74.11
2022-10-18T14:36:31.613Z,74.96
2022-10-18T14:39:01.509Z,75.70
2022-10-18T14:41:29.807Z,76.73
2022-10-18T14:44:16.658Z,76.73
2022-10-18T14:46:44.965Z,77.25
2022-10-18T14:49:12.737Z,77.95
2022-10-18T14:51:41.813Z,78.35
2022-10-18T14:56:46.424Z,79.28
2022-10-18T14:59:18.124Z,79.17
2022-10-18T15:01:54.377Z,78.81
2022-10-18T15:04:27.654Z,78.31
2022-10-18T15:06:55.818Z,78.25
2022-10-18T15:11:51.731Z,78.26
2022-10-18T15:14:19.788Z,77.36
2022-10-18T15:16:48.743Z,76.89
2022-10-18T15:19:31.417Z,76.99
2022-10-18T15:25:10.945Z,76.25
2022-10-18T15:27:39.483Z,76.32
2022-10-18T15:30:07.309Z,77.05
2022-10-18T15:32:34.225Z,77.29
2022-10-18T15:35:09.655Z,77.44
2022-10-18T15:37:40.329Z,78.37
2022-10-18T15:40:37.608Z,78.49
2022-10-18T15:43:25.858Z,78.96
2022-10-18T15:45:54.003Z,80.01
2022-10-18T15:48:23.558Z,80.53
2022-10-18T15:50:52.425Z,80.94
2022-10-18T15:53:32.544Z,80.88
2022-10-18T15:56:03.448Z,81.47
2022-10-18T15:58:38.958Z,81.62
2022-10-18T16:01:13.377Z,82.11
2022-10-18T16:03:40.271Z,82.36
2022-10-18T16:06:09.931Z,82.70
2022-10-18T16:08:40.127Z,83.18
2022-10-18T16:11:12.721Z,84.52
2022-10-18T16:13:39.500Z,84.54
2022-10-18T16:16:06.837Z,85.05
2022-10-18T16:18:33.425Z,84.93
2022-10-18T16:20:59.963Z,84.88
2022-10-18T16:23:27.742Z,85.24
2022-10-18T16:25:54.721Z,85.52
2022-10-18T16:28:24.516Z,85.86
2022-10-18T16:30:55.505Z,86.13
2022-10-18T16:33:22.324Z,86.41
2022-10-18T16:35:49.226Z,86.81
2022-10-18T16:38:31.223Z,87.00
2022-10-18T16:41:02.380Z,87.31
2022-10-18T16:43:30.378Z,87.55
2022-10-18T16:45:57.052Z,87.79
2022-10-18T16:48:24.921Z,88.15
2022-10-18T16:50:52.735Z,88.57
2022-10-18T16:53:19.339Z,88.55
2022-10-18T16:55:46.009Z,88.66
2022-10-18T16:58:16.337Z,88.78
2022-10-18T17:00:44.381Z,88.87
2022-10-18T17:03:10.882Z,89.16
2022-10-18T17:05:37.496Z,89.56
2022-10-18T17:08:04.246Z,90.51
2022-10-18T17:10:31.016Z,90.86
2022-10-18T17:12:57.548Z,91.09
2022-10-18T17:15:24.262Z,91.54
2022-10-18T17:17:52.116Z,91.88
2022-10-18T17:20:21.254Z,91.77
2022-10-18T17:22:47.938Z,92.35
2022-10-18T17:25:14.973Z,92.73
2022-10-18T17:27:41.816Z,92.63
2022-10-18T17:30:10.013Z,92.64
2022-10-18T17:32:36.523Z,92.45
2022-10-18T17:35:05.339Z,92.93
2022-10-18T17:37:32.411Z,93.08
2022-10-18T17:39:59.422Z,93.03
2022-10-18T17:42:25.934Z,92.39
2022-10-18T17:44:55.508Z,92.86
2022-10-18T17:47:24.173Z,93.54
2022-10-18T17:49:50.669Z,93.32
2022-10-18T17:52:18.654Z,93.25
2022-10-18T17:54:45.183Z,93.40
2022-10-18T17:57:11.776Z,93.62
2022-10-18T17:59:38.400Z,93.98
2022-10-18T18:02:05.001Z,94.42
2022-10-18T18:04:31.488Z,94.78
2022-10-18T18:06:58.029Z,94.96
2022-10-18T18:09:25.910Z,94.97
2022-10-18T18:11:52.705Z,95.31
2022-10-18T18:14:19.334Z,95.82
2022-10-18T18:16:46.914Z,96.17
2022-10-18T18:19:14.504Z,96.60
2022-10-18T18:21:42.558Z,96.52
2022-10-18T18:24:09.601Z,96.41
2022-10-18T18:26:39.200Z,96.73
2022-10-18T18:29:05.955Z,96.80
2022-10-18T18:31:37.734Z,96.68
2022-10-18T18:34:06.805Z,96.76
2022-10-18T18:36:33.391Z,96.90
2022-10-18T18:39:00.021Z,97.28
2022-10-18T18:41:28.378Z,97.24
2022-10-18T18:43:58.511Z,98.01
2022-10-18T18:46:27.272Z,98.73
2022-10-18T18:48:53.953Z,99.44
2022-10-18T18:51:21.559Z,99.44
2022-10-18T18:53:48.540Z,99.85
2022-10-18T18:56:17.767Z,99.71
2022-10-18T18:58:45.194Z,99.56
2022-10-18T19:01:14.973Z,99.94
2022-10-18T19:03:41.552Z,99.96
2022-10-18T19:06:11.067Z,99.90
2022-10-18T19:08:39.231Z,100.00
2022-10-18T19:11:09.026Z,100.00
2022-10-18T19:13:36.392Z,100.00
2022-10-18T19:16:22.586Z,100.00
2022-10-18T19:18:54.041Z,100.00
2022-10-18T19:21:21.506Z,100.00
2022-10-18T19:23:48.126Z,100.00
2022-10-18T19:26:31.914Z,100.00
2022-10-18T19:29:04.914Z,100.00
2022-10-18T19:31:33.269Z,100.00
2022-10-18T19:34:00.194Z,100.00
2022-10-18T19:36:27.875Z,100.00
2022-10-18T19:38:54.588Z,100.00
2022-10-18T19:41:21.596Z,100.00
2022-10-18T19:43:48.179Z,100.00
2022-10-18T19:46:14.917Z,100.00
2022-10-18T19:48:42.880Z,100.00
2022-10-18T19:51:10.021Z,100.00
2022-10-18T19:53:37.436Z,100.00
2022-10-18T19:56:05.981Z,100.00
2022-10-18T19:58:32.917Z,100.00
2022-10-18T20:00:59.861Z,100.00
2022-10-18T20:03:27.649Z,100.00
2022-10-18T20:05:56.496Z,100.00
2022-10-18T20:08:23.410Z,100.00
2022-10-18T20:10:50.553Z,100.00
2022-10-18T20:13:17.596Z,100.00
2022-10-18T20:15:46.405Z,100.00
2022-10-18T20:18:12.930Z,100.00
2022-10-18T20:20:39.509Z,100.00
2022-10-18T20:23:07.402Z,100.00
2022-10-18T20:25:34.048Z,100.00
2022-10-18T20:28:00.621Z,100.00
2022-10-18T20:30:27.341Z,100.00
2022-10-18T20:32:53.913Z,100.00
2022-10-18T20:35:21.217Z,100.00
2022-10-18T20:37:49.060Z,100.00
2022-10-18T20:40:17.058Z,100.00
2022-10-18T20:42:43.614Z,100.00
2022-10-18T20:45:10.817Z,100.00
2022-10-18T20:47:37.319Z,100.00
2022-10-18T20:50:04.757Z,100.00
2022-10-18T20:52:31.279Z,100.00
2022-10-18T20:54:57.832Z,100.00
2022-10-18T20:57:25.766Z,100.00
2022-10-18T20:59:52.372Z,100.00
2022-10-18T21:02:18.868Z,100.00
2022-10-18T21:04:45.449Z,100.00
2022-10-18T21:07:11.950Z,100.00
2022-10-18T21:09:38.609Z,100.00
2022-10-18T21:12:05.799Z,100.00
2022-10-18T21:14:33.788Z,100.00
2022-10-18T21:17:00.291Z,100.00
2022-10-18T21:19:27.414Z,100.00
2022-10-18T21:21:56.286Z,100.00
2022-10-18T21:24:24.230Z,100.00
2022-10-18T21:26:50.736Z,100.00
2022-10-18T21:29:21.928Z,100.00
2022-10-18T21:31:53.340Z,100.00
2022-10-18T21:34:20.073Z,100.00
2022-10-18T21:36:47.730Z,100.00
2022-10-18T21:39:16.929Z,100.00
2022-10-18T21:41:44.007Z,100.00
2022-10-18T21:44:11.065Z,100.00
2022-10-18T21:46:38.595Z,100.00
2022-10-18T21:49:08.980Z,100.00
2022-10-18T21:51:35.620Z,100.00
2022-10-18T21:54:02.128Z,100.00
2022-10-18T21:56:30.713Z,100.00
2022-10-18T21:58:57.863Z,100.00
2022-10-18T22:01:26.182Z,100.00
2022-10-18T22:03:54.525Z,100.00
2022-10-18T22:06:23.429Z,100.00
2022-10-18T22:08:51.561Z,100.00
2022-10-18T22:11:20.469Z,100.00
2022-10-18T22:13:47.245Z,100.00
2022-10-18T22:16:15.820Z,100.00
2022-10-18T22:18:43.232Z,100.00
2022-10-18T22:21:11.554Z,100.00
2022-10-18T22:23:41.368Z,100.00
2022-10-18T22:26:10.616Z,99.67
2022-10-18T22:28:37.872Z,99.58
2022-10-18T22:31:04.816Z,98.73
2022-10-18T22:33:31.747Z,100.00
2022-10-18T22:35:58.393Z,100.00
2022-10-18T22:38:25.167Z,100.00
2022-10-18T22:40:53.173Z,100.00
2022-10-18T22:43:19.672Z,100.00
2022-10-18T22:45:46.207Z,100.00
2022-10-18T22:48:12.875Z,100.00
2022-10-18T22:50:39.455Z,100.00
2022-10-18T22:53:05.962Z,100.00
2022-10-18T22:55:32.620Z,100.00
2022-10-18T22:58:00.461Z,100.00
2022-10-18T23:00:27.180Z,100.00
2022-10-18T23:02:53.697Z,100.00
2022-10-18T23:05:20.268Z,100.00
2022-10-18T23:07:49.990Z,100.00
2022-10-18T23:10:17.046Z,100.00
2022-10-18T23:12:44.075Z,100.00
2022-10-18T23:15:12.259Z,100.00
2022-10-18T23:17:38.785Z,100.00
2022-10-18T23:20:05.985Z,100.00
2022-10-18T23:22:32.752Z,100.00
2022-10-18T23:24:59.503Z,100.00
2022-10-18T23:27:26.054Z,100.00
2022-10-18T23:29:52.611Z,100.00
2022-10-18T23:32:20.496Z,100.00
2022-10-18T23:34:47.042Z,100.00
2022-10-18T23:37:13.615Z,100.00
2022-10-18T23:39:40.348Z,100.00
2022-10-18T23:42:06.837Z,100.00
2022-10-18T23:44:33.520Z,100.00
2022-10-18T23:47:00.032Z,100.00
2022-10-18T23:49:27.924Z,100.00
2022-10-18T23:51:54.439Z,100.00
2022-10-18T23:54:21.223Z,100.00
2022-10-18T23:56:47.748Z,100.00
2022-10-18T23:59:14.586Z,100.00
